sensor_id;sensor_type;location;lat;lon;timestamp;pressure;altitude;pressure_sealevel;temperature;humidity
31183;BME280;17813;0.000;0.000;2023-04-06T00:00:50;77390.84;;;-142.58;66.37
31183;BME280;17813;0.000;0.000;2023-04-06T00:03:27;77390.84;;;-142.58;66.46
31183;BME280;17813;0.000;0.000;2023-04-06T00:05:55;77401.03;;;-142.58;66.62
31183;BME280;17813;0.000;0.000;2023-04-06T00:08:26;77384.75;;;-142.58;65.86
31183;BME280;17813;0.000;0.000;2023-04-06T00:10:55;77386.78;;;-142.58;65.86
31183;BME280;17813;0.000;0.000;2023-04-06T00:13:22;77388.81;;;-142.58;66.02
31183;BME280;17813;0.000;0.000;2023-04-06T00:15:50;77380.69;;;-142.58;65.87
31183;BME280;17813;0.000;0.000;2023-04-06T00:18:24;77374.69;;;-142.58;65.48
31183;BME280;17813;0.000;0.000;2023-04-06T00:20:54;77370.50;;;-142.58;64.41
31183;BME280;17813;0.000;0.000;2023-04-06T00:23:26;77364.41;;;-142.58;64.48
31183;BME280;17813;0.000;0.000;2023-04-06T00:25:54;77378.63;;;-142.58;65.13
31183;BME280;17813;0.000;0.000;2023-04-06T00:28:30;77382.72;;;-142.58;64.65
31183;BME280;17813;0.000;0.000;2023-04-06T00:31:00;77384.75;;;-142.58;65.86
31183;BME280;17813;0.000;0.000;2023-04-06T00:33:31;77388.81;;;-142.58;64.93
31183;BME280;17813;0.000;0.000;2023-04-06T00:36:04;77392.88;;;-142.58;65.86
31183;BME280;17813;0.000;0.000;2023-04-06T00:38:37;77388.81;;;-142.58;65.86
31183;BME280;17813;0.000;0.000;2023-04-06T00:41:04;77388.81;;;-142.58;65.85
31183;BME280;17813;0.000;0.000;2023-04-06T00:43:32;77382.72;;;-142.58;65.85
31183;BME280;17813;0.000;0.000;2023-04-06T00:46:02;77413.22;;;-142.58;66.90
31183;BME280;17813;0.000;0.000;2023-04-06T00:48:30;99811.13;;;-142.58;66.27
31183;BME280;17813;0.000;0.000;2023-04-06T00:50:58;77413.22;;;-142.58;66.28
31183;BME280;17813;0.000;0.000;2023-04-06T00:53:30;99800.66;;;-142.58;66.68
31183;BME280;17813;0.000;0.000;2023-04-06T00:55:58;77403.06;;;-142.58;66.67
31183;BME280;17813;0.000;0.000;2023-04-06T00:58:27;77401.03;;;-142.58;66.54
31183;BME280;17813;0.000;0.000;2023-04-06T01:00:56;77407.25;;;-142.58;67.33
31183;BME280;17813;0.000;0.000;2023-04-06T01:03:23;77421.38;;;-142.58;66.32
31183;BME280;17813;0.000;0.000;2023-04-06T01:05:52;77435.75;;;-142.58;67.37
31183;BME280;17813;0.000;0.000;2023-04-06T01:08:31;77453.94;;;-142.58;67.98
31183;BME280;17813;0.000;0.000;2023-04-06T01:11:04;77464.09;;;-142.58;67.35
31183;BME280;17813;0.000;0.000;2023-04-06T01:13:34;77476.31;;;-142.58;67.76
31183;BME280;17813;0.000;0.000;2023-04-06T01:16:06;77492.59;;;-142.58;68.26
31183;BME280;17813;0.000;0.000;2023-04-06T01:18:39;77496.66;;;-142.58;68.64
31183;BME280;17813;0.000;0.000;2023-04-06T01:21:17;99804.88;;;-142.58;68.93
31183;BME280;17813;0.000;0.000;2023-04-06T01:24:07;77500.88;;;-142.58;68.93
31183;BME280;17813;0.000;0.000;2023-04-06T01:26:58;77492.59;;;-142.58;68.44
31183;BME280;17813;0.000;0.000;2023-04-06T01:29:44;77478.34;;;-142.58;67.68
31183;BME280;17813;0.000;0.000;2023-04-06T01:32:31;77472.25;;;-142.58;67.81
31183;BME280;17813;0.000;0.000;2023-04-06T01:35:19;77458.00;;;-142.58;68.16
31183;BME280;17813;0.000;0.000;2023-04-06T01:38:00;77455.97;;;-142.58;68.38
31183;BME280;17813;0.000;0.000;2023-04-06T01:40:31;77455.97;;;-142.58;68.24
31183;BME280;17813;0.000;0.000;2023-04-06T01:43:05;77443.75;;;-142.58;68.96
31183;BME280;17813;0.000;0.000;2023-04-06T01:45:52;77453.94;;;-142.58;69.60
31183;BME280;17813;0.000;0.000;2023-04-06T01:48:41;77476.31;;;-142.58;70.48
31183;BME280;17813;0.000;0.000;2023-04-06T01:51:28;77482.41;;;-142.58;70.13
31183;BME280;17813;0.000;0.000;2023-04-06T01:53:58;77472.38;;;-142.58;69.98
31183;BME280;17813;0.000;0.000;2023-04-06T01:56:26;77472.38;;;-142.58;69.58
31183;BME280;17813;0.000;0.000;2023-04-06T01:58:55;77466.13;;;-142.58;70.22
31183;BME280;17813;0.000;0.000;2023-04-06T02:01:25;77482.41;;;-142.58;71.08
31183;BME280;17813;0.000;0.000;2023-04-06T02:03:52;77482.41;;;-142.58;71.57
31183;BME280;17813;0.000;0.000;2023-04-06T02:06:19;77480.38;;;-142.58;71.40
31183;BME280;17813;0.000;0.000;2023-04-06T02:08:47;77470.22;;;-142.58;70.60
31183;BME280;17813;0.000;0.000;2023-04-06T02:11:14;77476.31;;;-142.58;71.00
31183;BME280;17813;0.000;0.000;2023-04-06T02:13:41;77464.09;;;-142.58;70.88
31183;BME280;17813;0.000;0.000;2023-04-06T02:16:08;77445.78;;;-142.58;70.37
31183;BME280;17813;0.000;0.000;2023-04-06T02:18:35;77443.75;;;-142.58;70.53
31183;BME280;17813;0.000;0.000;2023-04-06T02:21:02;77435.75;;;-142.58;70.43
31183;BME280;17813;0.000;0.000;2023-04-06T02:23:30;77431.69;;;-142.58;69.96
31183;BME280;17813;0.000;0.000;2023-04-06T02:25:57;77427.47;;;-142.58;69.82
31183;BME280;17813;0.000;0.000;2023-04-06T02:28:24;77443.75;;;-142.58;69.97
31183;BME280;17813;0.000;0.000;2023-04-06T02:30:54;77427.47;;;-142.58;69.70
31183;BME280;17813;0.000;0.000;2023-04-06T02:33:21;77431.69;;;-142.58;70.44
31183;BME280;17813;0.000;0.000;2023-04-06T02:35:47;77423.53;;;-142.58;69.70
31183;BME280;17813;0.000;0.000;2023-04-06T02:38:15;77413.22;;;-142.58;69.73
31183;BME280;17813;0.000;0.000;2023-04-06T02:40:42;77407.13;;;-142.58;69.67
31183;BME280;17813;0.000;0.000;2023-04-06T02:43:08;77401.03;;;-142.58;69.79
31183;BME280;17813;0.000;0.000;2023-04-06T02:45:36;77405.09;;;-142.58;69.02
31183;BME280;17813;0.000;0.000;2023-04-06T02:48:03;77413.22;;;-142.58;70.41
31183;BME280;17813;0.000;0.000;2023-04-06T02:50:30;77405.09;;;-142.58;70.19
31183;BME280;17813;0.000;0.000;2023-04-06T02:52:57;77407.13;;;-142.58;69.34
31183;BME280;17813;0.000;0.000;2023-04-06T02:55:24;77411.19;;;-142.58;70.79
31183;BME280;17813;0.000;0.000;2023-04-06T02:57:51;77417.31;;;-142.58;70.36
31183;BME280;17813;0.000;0.000;2023-04-06T03:00:19;77453.94;;;-142.58;71.60
31183;BME280;17813;0.000;0.000;2023-04-06T03:02:46;77468.19;;;-142.58;72.01
31183;BME280;17813;0.000;0.000;2023-04-06T03:05:12;77472.25;;;-142.58;71.98
31183;BME280;17813;0.000;0.000;2023-04-06T03:07:41;77468.19;;;-142.58;71.25
31183;BME280;17813;0.000;0.000;2023-04-06T03:10:08;77478.34;;;-142.58;71.81
31183;BME280;17813;0.000;0.000;2023-04-06T03:12:36;77468.19;;;-142.58;71.90
31183;BME280;17813;0.000;0.000;2023-04-06T03:15:03;77480.38;;;-142.58;71.33
31183;BME280;17813;0.000;0.000;2023-04-06T03:17:30;77476.31;;;-142.58;71.40
31183;BME280;17813;0.000;0.000;2023-04-06T03:19:57;77478.34;;;-142.58;71.14
31183;BME280;17813;0.000;0.000;2023-04-06T03:22:24;77482.41;;;-142.58;71.25
31183;BME280;17813;0.000;0.000;2023-04-06T03:24:51;77492.59;;;-142.58;71.07
31183;BME280;17813;0.000;0.000;2023-04-06T03:27:18;77494.63;;;-142.58;71.05
31183;BME280;17813;0.000;0.000;2023-04-06T03:29:46;77504.94;;;-142.58;71.58
31183;BME280;17813;0.000;0.000;2023-04-06T03:32:13;77512.94;;;-142.58;70.57
31183;BME280;17813;0.000;0.000;2023-04-06T03:34:40;77517.00;;;-142.58;70.82
31183;BME280;17813;0.000;0.000;2023-04-06T03:37:07;77525.16;;;-142.58;71.46
31183;BME280;17813;0.000;0.000;2023-04-06T03:39:34;77535.47;;;-142.58;72.41
31183;BME280;17813;0.000;0.000;2023-04-06T03:42:01;99795.28;;;0.94;72.84
31183;BME280;17813;0.000;0.000;2023-04-06T03:44:28;99795.25;;;0.96;72.93
31183;BME280;17813;0.000;0.000;2023-04-06T03:46:55;99801.41;;;0.92;72.60
31183;BME280;17813;0.000;0.000;2023-04-06T03:49:22;99802.31;;;0.91;72.66
31183;BME280;17813;0.000;0.000;2023-04-06T03:51:49;99803.25;;;0.87;72.24
31183;BME280;17813;0.000;0.000;2023-04-06T03:54:17;99808.50;;;0.84;72.60
31183;BME280;17813;0.000;0.000;2023-04-06T03:56:44;99805.97;;;0.79;72.97
31183;BME280;17813;0.000;0.000;2023-04-06T03:59:12;99799.94;;;0.76;72.58
31183;BME280;17813;0.000;0.000;2023-04-06T04:01:39;99807.78;;;0.76;72.51
31183;BME280;17813;0.000;0.000;2023-04-06T04:04:07;99806.97;;;0.72;72.41
31183;BME280;17813;0.000;0.000;2023-04-06T04:06:34;99807.88;;;0.70;72.75
31183;BME280;17813;0.000;0.000;2023-04-06T04:09:08;99802.72;;;0.67;72.87
31183;BME280;17813;0.000;0.000;2023-04-06T04:11:37;99808.91;;;0.59;73.50
31183;BME280;17813;0.000;0.000;2023-04-06T04:14:04;99804.69;;;0.52;73.71
31183;BME280;17813;0.000;0.000;2023-04-06T04:16:31;99806.53;;;0.46;74.07
31183;BME280;17813;0.000;0.000;2023-04-06T04:18:58;99809.31;;;0.35;74.54
31183;BME280;17813;0.000;0.000;2023-04-06T04:21:28;99809.50;;;0.21;75.79
31183;BME280;17813;0.000;0.000;2023-04-06T04:23:54;99813.88;;;0.19;75.70
31183;BME280;17813;0.000;0.000;2023-04-06T04:26:22;99806.19;;;0.10;76.45
31183;BME280;17813;0.000;0.000;2023-04-06T04:28:49;99810.66;;;-0.01;76.81
31183;BME280;17813;0.000;0.000;2023-04-06T04:31:16;99803.72;;;-0.02;76.67
31183;BME280;17813;0.000;0.000;2023-04-06T04:33:48;99813.38;;;-0.09;77.10
31183;BME280;17813;0.000;0.000;2023-04-06T04:36:17;99818.59;;;-0.09;76.15
31183;BME280;17813;0.000;0.000;2023-04-06T04:38:44;99811.63;;;-0.08;75.53
31183;BME280;17813;0.000;0.000;2023-04-06T04:41:11;99816.88;;;-0.10;75.13
31183;BME280;17813;0.000;0.000;2023-04-06T04:43:38;99816.00;;;-0.10;74.72
31183;BME280;17813;0.000;0.000;2023-04-06T04:46:05;99816.88;;;-0.11;74.79
31183;BME280;17813;0.000;0.000;2023-04-06T04:48:33;99827.34;;;-0.13;74.87
31183;BME280;17813;0.000;0.000;2023-04-06T04:51:00;99831.69;;;-0.13;74.89
31183;BME280;17813;0.000;0.000;2023-04-06T04:53:30;99829.06;;;-0.13;74.91
31183;BME280;17813;0.000;0.000;2023-04-06T04:55:57;99834.25;;;-0.10;75.15
31183;BME280;17813;0.000;0.000;2023-04-06T04:58:25;99836.84;;;-0.09;75.44
31183;BME280;17813;0.000;0.000;2023-04-06T05:00:51;99835.06;;;-0.05;75.14
31183;BME280;17813;0.000;0.000;2023-04-06T05:03:23;99831.53;;;-0.03;75.14
31183;BME280;17813;0.000;0.000;2023-04-06T05:05:51;99829.72;;;0.06;74.71
31183;BME280;17813;0.000;0.000;2023-04-06T05:08:18;99822.69;;;0.12;74.43
31183;BME280;17813;0.000;0.000;2023-04-06T05:10:45;99826.06;;;0.19;74.38
31183;BME280;17813;0.000;0.000;2023-04-06T05:13:14;99831.19;;;0.25;74.40
31183;BME280;17813;0.000;0.000;2023-04-06T05:15:41;99830.19;;;0.35;73.89
31183;BME280;17813;0.000;0.000;2023-04-06T05:18:09;99837.91;;;0.41;73.50
31183;BME280;17813;0.000;0.000;2023-04-06T05:20:37;99830.91;;;0.45;73.39
31183;BME280;17813;0.000;0.000;2023-04-06T05:23:04;99831.66;;;0.51;73.40
31183;BME280;17813;0.000;0.000;2023-04-06T05:25:32;99831.56;;;0.57;73.23
31183;BME280;17813;0.000;0.000;2023-04-06T05:28:00;99836.66;;;0.65;72.41
31183;BME280;17813;0.000;0.000;2023-04-06T05:30:27;99827.03;;;0.70;72.85
31183;BME280;17813;0.000;0.000;2023-04-06T05:32:54;99834.81;;;0.73;72.78
31183;BME280;17813;0.000;0.000;2023-04-06T05:35:21;99832.09;;;0.79;72.40
31183;BME280;17813;0.000;0.000;2023-04-06T05:37:48;99833.75;;;0.85;71.64
31183;BME280;17813;0.000;0.000;2023-04-06T05:40:15;99831.91;;;0.90;71.87
31183;BME280;17813;0.000;0.000;2023-04-06T05:42:43;99831.78;;;0.98;71.50
31183;BME280;17813;0.000;0.000;2023-04-06T05:45:11;99835.09;;;1.07;71.33
31183;BME280;17813;0.000;0.000;2023-04-06T05:47:43;99828.88;;;1.14;70.73
31183;BME280;17813;0.000;0.000;2023-04-06T05:50:12;99834.81;;;1.22;70.51
31183;BME280;17813;0.000;0.000;2023-04-06T05:52:39;99835.53;;;1.31;69.85
31183;BME280;17813;0.000;0.000;2023-04-06T05:55:10;99840.63;;;1.38;69.97
31183;BME280;17813;0.000;0.000;2023-04-06T05:57:38;99841.31;;;1.48;69.50
31183;BME280;17813;0.000;0.000;2023-04-06T06:00:06;99838.53;;;1.57;69.54
31183;BME280;17813;0.000;0.000;2023-04-06T06:02:35;99833.00;;;1.72;69.22
31183;BME280;17813;0.000;0.000;2023-04-06T06:05:04;99829.41;;;2.18;69.03
31183;BME280;17813;0.000;0.000;2023-04-06T06:07:30;99820.66;;;3.58;67.11
31183;BME280;17813;0.000;0.000;2023-04-06T06:09:58;99817.44;;;5.17;63.01
31183;BME280;17813;0.000;0.000;2023-04-06T06:12:25;99815.50;;;6.42;58.11
31183;BME280;17813;0.000;0.000;2023-04-06T06:14:52;99816.56;;;7.43;55.75
31183;BME280;17813;0.000;0.000;2023-04-06T06:17:19;99804.94;;;8.25;54.10
31183;BME280;17813;0.000;0.000;2023-04-06T06:19:47;99814.41;;;9.20;51.49
31183;BME280;17813;0.000;0.000;2023-04-06T06:22:14;99806.13;;;9.94;50.55
31183;BME280;17813;0.000;0.000;2023-04-06T06:24:41;99796.28;;;10.60;47.75
31183;BME280;17813;0.000;0.000;2023-04-06T06:27:08;99788.88;;;11.27;46.97
31183;BME280;17813;0.000;0.000;2023-04-06T06:29:35;99791.50;;;11.71;45.05
31183;BME280;17813;0.000;0.000;2023-04-06T06:32:02;99791.09;;;12.34;43.95
31183;BME280;17813;0.000;0.000;2023-04-06T06:34:29;99788.81;;;12.69;43.11
31183;BME280;17813;0.000;0.000;2023-04-06T06:36:59;99793.66;;;13.43;41.90
31183;BME280;17813;0.000;0.000;2023-04-06T06:39:26;99784.50;;;13.60;39.97
31183;BME280;17813;0.000;0.000;2023-04-06T06:41:53;99786.50;;;13.95;38.53
31183;BME280;17813;0.000;0.000;2023-04-06T06:44:25;99785.53;;;13.96;37.53
31183;BME280;17813;0.000;0.000;2023-04-06T06:46:52;99782.19;;;14.18;36.22
31183;BME280;17813;0.000;0.000;2023-04-06T06:49:19;99782.53;;;14.13;35.17
31183;BME280;17813;0.000;0.000;2023-04-06T06:51:48;99780.94;;;14.10;34.37
31183;BME280;17813;0.000;0.000;2023-04-06T06:54:15;99783.28;;;14.02;35.15
31183;BME280;17813;0.000;0.000;2023-04-06T06:56:42;99780.16;;;14.21;34.07
31183;BME280;17813;0.000;0.000;2023-04-06T06:59:09;99786.78;;;14.15;35.24
31183;BME280;17813;0.000;0.000;2023-04-06T07:01:37;99781.72;;;14.36;33.31
31183;BME280;17813;0.000;0.000;2023-04-06T07:04:04;99788.38;;;14.67;33.51
31183;BME280;17813;0.000;0.000;2023-04-06T07:06:31;99783.03;;;14.91;32.65
31183;BME280;17813;0.000;0.000;2023-04-06T07:08:57;99778.34;;;15.06;32.30
31183;BME280;17813;0.000;0.000;2023-04-06T07:11:25;99781.91;;;15.18;31.07
31183;BME280;17813;0.000;0.000;2023-04-06T07:13:52;99780.31;;;15.15;31.52
31183;BME280;17813;0.000;0.000;2023-04-06T07:16:19;99787.22;;;15.41;31.35
31183;BME280;17813;0.000;0.000;2023-04-06T07:18:46;99776.53;;;15.53;30.26
31183;BME280;17813;0.000;0.000;2023-04-06T07:21:13;99775.56;;;15.42;30.40
31183;BME280;17813;0.000;0.000;2023-04-06T07:23:41;99772.13;;;15.29;30.13
31183;BME280;17813;0.000;0.000;2023-04-06T07:26:08;99775.13;;;15.25;29.72
31183;BME280;17813;0.000;0.000;2023-04-06T07:28:34;99779.94;;;15.79;29.73
31183;BME280;17813;0.000;0.000;2023-04-06T07:31:01;99773.00;;;16.10;29.82
31183;BME280;17813;0.000;0.000;2023-04-06T07:33:28;99772.34;;;16.51;29.41
31183;BME280;17813;0.000;0.000;2023-04-06T07:35:56;99768.88;;;16.82;27.92
31183;BME280;17813;0.000;0.000;2023-04-06T07:38:25;99779.41;;;16.95;28.02
31183;BME280;17813;0.000;0.000;2023-04-06T07:40:52;99772.06;;;17.29;26.97
31183;BME280;17813;0.000;0.000;2023-04-06T07:43:19;99775.06;;;17.35;26.74
31183;BME280;17813;0.000;0.000;2023-04-06T07:45:45;99778.22;;;17.41;27.11
31183;BME280;17813;0.000;0.000;2023-04-06T07:48:13;99769.31;;;17.82;26.79
31183;BME280;17813;0.000;0.000;2023-04-06T07:50:40;99766.72;;;18.31;26.23
31183;BME280;17813;0.000;0.000;2023-04-06T07:53:08;99757.72;;;18.42;24.94
31183;BME280;17813;0.000;0.000;2023-04-06T07:55:35;99765.31;;;18.37;26.16
31183;BME280;17813;0.000;0.000;2023-04-06T07:58:02;99759.78;;;18.69;25.33
31183;BME280;17813;0.000;0.000;2023-04-06T08:00:30;99766.31;;;18.36;25.27
31183;BME280;17813;0.000;0.000;2023-04-06T08:02:59;99759.88;;;18.18;24.89
31183;BME280;17813;0.000;0.000;2023-04-06T08:05:26;99753.41;;;18.89;26.30
31183;BME280;17813;0.000;0.000;2023-04-06T08:07:53;99750.56;;;19.96;25.14
31183;BME280;17813;0.000;0.000;2023-04-06T08:10:23;99750.50;;;20.42;22.44
31183;BME280;17813;0.000;0.000;2023-04-06T08:12:51;99744.22;;;20.51;24.38
31183;BME280;17813;0.000;0.000;2023-04-06T08:15:18;99752.28;;;19.97;22.15
31183;BME280;17813;0.000;0.000;2023-04-06T08:17:45;99745.25;;;21.22;24.48
31183;BME280;17813;0.000;0.000;2023-04-06T08:20:15;99744.91;;;21.60;21.75
31183;BME280;17813;0.000;0.000;2023-04-06T08:22:42;99748.84;;;22.00;20.58
31183;BME280;17813;0.000;0.000;2023-04-06T08:25:10;99745.66;;;21.27;21.39
31183;BME280;17813;0.000;0.000;2023-04-06T08:27:36;99753.97;;;21.33;22.14
31183;BME280;17813;0.000;0.000;2023-04-06T08:30:03;99746.66;;;21.43;21.21
31183;BME280;17813;0.000;0.000;2023-04-06T08:32:31;99748.84;;;21.22;23.48
31183;BME280;17813;0.000;0.000;2023-04-06T08:34:58;99743.53;;;22.08;22.58
31183;BME280;17813;0.000;0.000;2023-04-06T08:37:25;99733.31;;;23.10;22.16
31183;BME280;17813;0.000;0.000;2023-04-06T08:39:52;99741.78;;;23.32;21.76
31183;BME280;17813;0.000;0.000;2023-04-06T08:42:21;99736.72;;;23.53;20.53
31183;BME280;17813;0.000;0.000;2023-04-06T08:44:51;99736.72;;;23.69;20.22
31183;BME280;17813;0.000;0.000;2023-04-06T08:47:19;99738.22;;;22.91;18.25
31183;BME280;17813;0.000;0.000;2023-04-06T08:49:47;99734.69;;;23.23;18.41
31183;BME280;17813;0.000;0.000;2023-04-06T08:52:19;99729.78;;;23.34;21.35
31183;BME280;17813;0.000;0.000;2023-04-06T08:54:49;99729.59;;;24.24;19.07
31183;BME280;17813;0.000;0.000;2023-04-06T08:57:19;99731.84;;;24.12;17.33
31183;BME280;17813;0.000;0.000;2023-04-06T08:59:48;99724.03;;;24.17;17.19
31183;BME280;17813;0.000;0.000;2023-04-06T09:02:19;99725.75;;;24.10;17.51
31183;BME280;17813;0.000;0.000;2023-04-06T09:04:48;99728.34;;;24.96;18.81
31183;BME280;17813;0.000;0.000;2023-04-06T09:07:19;99719.78;;;25.30;17.22
31183;BME280;17813;0.000;0.000;2023-04-06T09:09:46;99724.91;;;25.63;17.32
31183;BME280;17813;0.000;0.000;2023-04-06T09:12:28;99728.53;;;24.95;15.47
31183;BME280;17813;0.000;0.000;2023-04-06T09:14:56;99727.56;;;24.88;15.90
31183;BME280;17813;0.000;0.000;2023-04-06T09:17:25;99717.09;;;25.45;16.04
31183;BME280;17813;0.000;0.000;2023-04-06T09:19:52;99713.53;;;26.26;18.12
31183;BME280;17813;0.000;0.000;2023-04-06T09:22:20;99721.13;;;26.16;15.23
31183;BME280;17813;0.000;0.000;2023-04-06T09:24:50;99727.03;;;25.15;15.32
31183;BME280;17813;0.000;0.000;2023-04-06T09:27:17;99716.81;;;24.72;15.52
31183;BME280;17813;0.000;0.000;2023-04-06T09:29:45;99723.00;;;24.57;16.19
31183;BME280;17813;0.000;0.000;2023-04-06T09:32:12;99718.03;;;24.69;15.39
31183;BME280;17813;0.000;0.000;2023-04-06T09:34:43;99728.53;;;23.94;15.65
31183;BME280;17813;0.000;0.000;2023-04-06T09:37:15;99724.03;;;23.46;16.40
31183;BME280;17813;0.000;0.000;2023-04-06T09:39:42;99716.09;;;23.12;17.51
31183;BME280;17813;0.000;0.000;2023-04-06T09:42:09;99718.78;;;23.20;16.60
31183;BME280;17813;0.000;0.000;2023-04-06T09:44:36;99712.19;;;23.22;16.78
31183;BME280;17813;0.000;0.000;2023-04-06T09:47:06;99711.53;;;23.45;15.94
31183;BME280;17813;0.000;0.000;2023-04-06T09:49:34;99707.34;;;23.97;15.94
31183;BME280;17813;0.000;0.000;2023-04-06T09:52:07;99700.06;;;23.98;16.63
31183;BME280;17813;0.000;0.000;2023-04-06T09:54:35;99707.22;;;23.91;17.56
31183;BME280;17813;0.000;0.000;2023-04-06T09:57:07;99689.47;;;24.27;16.57
31183;BME280;17813;0.000;0.000;2023-04-06T09:59:50;99700.44;;;23.87;16.26
31183;BME280;17813;0.000;0.000;2023-04-06T10:02:45;99701.19;;;22.83;17.29
31183;BME280;17813;0.000;0.000;2023-04-06T10:07:59;99698.13;;;22.78;16.66
31183;BME280;17813;0.000;0.000;2023-04-06T10:10:29;99703.91;;;22.83;16.20
31183;BME280;17813;0.000;0.000;2023-04-06T10:12:57;99704.41;;;21.86;16.80
31183;BME280;17813;0.000;0.000;2023-04-06T10:15:25;99696.06;;;22.56;18.57
31183;BME280;17813;0.000;0.000;2023-04-06T10:17:53;99690.03;;;23.67;20.20
31183;BME280;17813;0.000;0.000;2023-04-06T10:25:58;99689.00;;;23.68;16.37
31183;BME280;17813;0.000;0.000;2023-04-06T10:28:31;99686.63;;;23.33;19.01
31183;BME280;17813;0.000;0.000;2023-04-06T10:31:00;99688.00;;;23.37;18.29
31183;BME280;17813;0.000;0.000;2023-04-06T10:33:28;99680.41;;;23.16;17.90
31183;BME280;17813;0.000;0.000;2023-04-06T10:35:55;99679.72;;;23.47;19.15
31183;BME280;17813;0.000;0.000;2023-04-06T10:38:33;99680.91;;;23.03;18.07
31183;BME280;17813;0.000;0.000;2023-04-06T10:41:09;99691.88;;;22.11;18.69
31183;BME280;17813;0.000;0.000;2023-04-06T10:43:38;99683.81;;;22.19;18.57
31183;BME280;17813;0.000;0.000;2023-04-06T10:46:07;99688.25;;;22.44;19.58
31183;BME280;17813;0.000;0.000;2023-04-06T10:48:41;99672.56;;;22.56;17.50
31183;BME280;17813;0.000;0.000;2023-04-06T10:51:14;99678.72;;;21.48;17.66
31183;BME280;17813;0.000;0.000;2023-04-06T10:53:46;99677.63;;;20.16;18.46
31183;BME280;17813;0.000;0.000;2023-04-06T10:56:17;99679.88;;;20.21;18.80
31183;BME280;17813;0.000;0.000;2023-04-06T10:58:46;99680.34;;;19.89;18.98
31183;BME280;17813;0.000;0.000;2023-04-06T11:01:16;99677.28;;;20.02;20.31
31183;BME280;17813;0.000;0.000;2023-04-06T11:03:56;99680.34;;;19.89;19.86
31183;BME280;17813;0.000;0.000;2023-04-06T11:06:29;99669.50;;;20.26;20.96
31183;BME280;17813;0.000;0.000;2023-04-06T11:08:59;99666.59;;;20.37;18.99
31183;BME280;17813;0.000;0.000;2023-04-06T11:11:29;99658.16;;;20.05;19.75
31183;BME280;17813;0.000;0.000;2023-04-06T11:14:00;99669.81;;;19.02;20.81
31183;BME280;17813;0.000;0.000;2023-04-06T11:16:32;99663.38;;;19.32;23.17
31183;BME280;17813;0.000;0.000;2023-04-06T11:19:01;99661.47;;;19.62;23.59
31183;BME280;17813;0.000;0.000;2023-04-06T11:21:36;99654.88;;;19.83;23.52
31183;BME280;17813;0.000;0.000;2023-04-06T11:24:16;99655.25;;;19.88;23.15
31183;BME280;17813;0.000;0.000;2023-04-06T11:26:55;99650.56;;;19.63;23.99
31183;BME280;17813;0.000;0.000;2023-04-06T11:29:30;99647.03;;;19.63;22.69
31183;BME280;17813;0.000;0.000;2023-04-06T11:32:07;99646.78;;;18.80;21.28
31183;BME280;17813;0.000;0.000;2023-04-06T11:34:39;99651.44;;;18.40;22.89
31183;BME280;17813;0.000;0.000;2023-04-06T11:37:11;99646.09;;;17.99;22.68
31183;BME280;17813;0.000;0.000;2023-04-06T11:42:09;99645.28;;;17.38;21.68
31183;BME280;17813;0.000;0.000;2023-04-06T11:44:38;99647.47;;;17.23;22.65
31183;BME280;17813;0.000;0.000;2023-04-06T11:47:08;99645.53;;;17.04;23.39
31183;BME280;17813;0.000;0.000;2023-04-06T11:49:38;99642.94;;;16.29;22.67
31183;BME280;17813;0.000;0.000;2023-04-06T11:52:15;99642.25;;;16.16;23.38
31183;BME280;17813;0.000;0.000;2023-04-06T11:54:43;99641.22;;;16.60;23.78
31183;BME280;17813;0.000;0.000;2023-04-06T11:57:11;99632.78;;;17.18;26.29
31183;BME280;17813;0.000;0.000;2023-04-06T11:59:38;99630.56;;;17.63;24.06
31183;BME280;17813;0.000;0.000;2023-04-06T12:02:05;99626.19;;;17.92;24.21
31183;BME280;17813;0.000;0.000;2023-04-06T12:04:33;99619.38;;;17.88;23.34
31183;BME280;17813;0.000;0.000;2023-04-06T12:07:02;99617.97;;;17.54;22.32
31183;BME280;17813;0.000;0.000;2023-04-06T12:09:30;99621.75;;;17.42;23.00
31183;BME280;17813;0.000;0.000;2023-04-06T12:11:57;99613.97;;;17.39;24.97
31183;BME280;17813;0.000;0.000;2023-04-06T12:14:24;99615.84;;;17.48;23.22
31183;BME280;17813;0.000;0.000;2023-04-06T12:16:51;99618.63;;;17.36;22.57
31183;BME280;17813;0.000;0.000;2023-04-06T12:19:18;99610.66;;;17.25;23.14
31183;BME280;17813;0.000;0.000;2023-04-06T12:21:45;99612.97;;;17.09;23.11
31183;BME280;17813;0.000;0.000;2023-04-06T12:24:13;99608.59;;;17.08;24.18
31183;BME280;17813;0.000;0.000;2023-04-06T12:26:40;99603.16;;;17.19;22.82
31183;BME280;17813;0.000;0.000;2023-04-06T12:29:07;99601.03;;;16.71;22.49
31183;BME280;17813;0.000;0.000;2023-04-06T12:31:39;99599.22;;;16.40;23.13
31183;BME280;17813;0.000;0.000;2023-04-06T12:34:07;99604.25;;;16.54;25.15
31183;BME280;17813;0.000;0.000;2023-04-06T12:36:34;99603.72;;;16.92;26.03
31183;BME280;17813;0.000;0.000;2023-04-06T12:39:04;99601.47;;;17.18;25.58
31183;BME280;17813;0.000;0.000;2023-04-06T12:41:31;99591.84;;;17.46;26.01
31183;BME280;17813;0.000;0.000;2023-04-06T12:43:59;99590.91;;;17.57;24.96
31183;BME280;17813;0.000;0.000;2023-04-06T12:46:27;99585.59;;;17.36;24.08
31183;BME280;17813;0.000;0.000;2023-04-06T12:48:56;99593.44;;;16.97;22.46
31183;BME280;17813;0.000;0.000;2023-04-06T12:51:24;99590.19;;;16.20;23.29
31183;BME280;17813;0.000;0.000;2023-04-06T12:53:52;99586.09;;;16.37;25.41
31183;BME280;17813;0.000;0.000;2023-04-06T12:56:19;99592.75;;;16.43;24.43
31183;BME280;17813;0.000;0.000;2023-04-06T12:58:47;99585.97;;;16.06;24.30
31183;BME280;17813;0.000;0.000;2023-04-06T13:01:14;99573.03;;;15.46;23.03
31183;BME280;17813;0.000;0.000;2023-04-06T13:03:42;99573.44;;;15.64;24.06
31183;BME280;17813;0.000;0.000;2023-04-06T13:06:09;99570.28;;;15.70;23.44
31183;BME280;17813;0.000;0.000;2023-04-06T13:08:38;99565.88;;;15.58;23.90
31183;BME280;17813;0.000;0.000;2023-04-06T13:11:05;99568.81;;;15.21;24.28
31183;BME280;17813;0.000;0.000;2023-04-06T13:13:36;99566.25;;;15.20;23.95
31183;BME280;17813;0.000;0.000;2023-04-06T13:16:07;99564.31;;;15.22;23.56
31183;BME280;17813;0.000;0.000;2023-04-06T13:18:34;99561.88;;;15.30;23.97
31183;BME280;17813;0.000;0.000;2023-04-06T13:21:03;99561.63;;;15.33;23.95
31183;BME280;17813;0.000;0.000;2023-04-06T13:23:30;99555.81;;;15.39;24.48
31183;BME280;17813;0.000;0.000;2023-04-06T13:26:02;99552.06;;;15.19;23.47
31183;BME280;17813;0.000;0.000;2023-04-06T13:28:31;99554.94;;;14.71;23.55